sensor_id;sensor_type;location;lat;lon;timestamp;pressure;altitude;pressure_sealevel;temperature;humidity
72677;BME280;60755;51.374;10.662;2022-09-16T00:00:47;96460.47;;;11.34;86.61
72677;BME280;60755;51.374;10.662;2022-09-16T00:03:15;96458.31;;;11.20;87.23
72677;BME280;60755;51.374;10.662;2022-09-16T00:05:42;96458.59;;;11.24;87.57
72677;BME280;60755;51.374;10.662;2022-09-16T00:08:11;96458.34;;;11.36;86.64
72677;BME280;60755;51.374;10.662;2022-09-16T00:10:38;96455.19;;;11.34;86.29
72677;BME280;60755;51.374;10.662;2022-09-16T00:13:05;96455.19;;;11.24;87.33
72677;BME280;60755;51.374;10.662;2022-09-16T00:15:32;96452.50;;;11.18;88.12
72677;BME280;60755;51.374;10.662;2022-09-16T00:17:59;96450.91;;;11.12;87.78
72677;BME280;60755;51.374;10.662;2022-09-16T00:20:26;96454.09;;;11.19;88.48
72677;BME280;60755;51.374;10.662;2022-09-16T00:22:52;96451.69;;;11.13;88.37
72677;BME280;60755;51.374;10.662;2022-09-16T00:25:20;96458.53;;;11.14;88.87
72677;BME280;60755;51.374;10.662;2022-09-16T00:27:47;96457.00;;;11.28;88.54
72677;BME280;60755;51.374;10.662;2022-09-16T00:30:14;96450.19;;;11.27;88.76
72677;BME280;60755;51.374;10.662;2022-09-16T00:32:40;96456.00;;;11.34;88.04
72677;BME280;60755;51.374;10.662;2022-09-16T00:35:07;96447.84;;;11.41;87.99
72677;BME280;60755;51.374;10.662;2022-09-16T00:37:34;96449.16;;;11.38;87.75
72677;BME280;60755;51.374;10.662;2022-09-16T00:40:01;96453.63;;;11.43;87.89
72677;BME280;60755;51.374;10.662;2022-09-16T00:42:29;96465.72;;;11.39;87.70
72677;BME280;60755;51.374;10.662;2022-09-16T00:44:58;96465.72;;;11.34;88.28
72677;BME280;60755;51.374;10.662;2022-09-16T00:47:30;96461.06;;;11.56;87.83
72677;BME280;60755;51.374;10.662;2022-09-16T00:50:02;96467.56;;;11.38;87.88
72677;BME280;60755;51.374;10.662;2022-09-16T00:52:31;96459.94;;;11.32;88.73
72677;BME280;60755;51.374;10.662;2022-09-16T00:55:00;96463.59;;;11.26;87.92
72677;BME280;60755;51.374;10.662;2022-09-16T00:57:29;96460.09;;;11.10;88.24
72677;BME280;60755;51.374;10.662;2022-09-16T00:59:56;96456.94;;;11.08;88.40
72677;BME280;60755;51.374;10.662;2022-09-16T01:02:23;96467.69;;;11.01;88.61
72677;BME280;60755;51.374;10.662;2022-09-16T01:04:53;96459.00;;;10.96;89.26
72677;BME280;60755;51.374;10.662;2022-09-16T01:07:26;96460.25;;;10.88;89.33
72677;BME280;60755;51.374;10.662;2022-09-16T01:09:55;96452.06;;;10.79;89.69
72677;BME280;60755;51.374;10.662;2022-09-16T01:12:22;96456.50;;;10.74;90.61
72677;BME280;60755;51.374;10.662;2022-09-16T01:14:50;96458.56;;;10.61;90.48
72677;BME280;60755;51.374;10.662;2022-09-16T01:17:26;96458.66;;;10.82;89.99
72677;BME280;60755;51.374;10.662;2022-09-16T01:20:13;96463.81;;;10.67;90.44
72677;BME280;60755;51.374;10.662;2022-09-16T01:23:00;96461.78;;;10.79;90.49
72677;BME280;60755;51.374;10.662;2022-09-16T01:25:47;96458.03;;;10.59;90.41
72677;BME280;60755;51.374;10.662;2022-09-16T01:28:38;96454.81;;;10.52;90.69
72677;BME280;60755;51.374;10.662;2022-09-16T01:31:14;96460.81;;;10.48;90.60
72677;BME280;60755;51.374;10.662;2022-09-16T01:33:50;96458.81;;;10.65;91.16
72677;BME280;60755;51.374;10.662;2022-09-16T01:36:30;96454.88;;;10.62;89.91
72677;BME280;60755;51.374;10.662;2022-09-16T01:39:07;96449.03;;;10.55;90.20
72677;BME280;60755;51.374;10.662;2022-09-16T01:41:43;96457.25;;;10.64;90.15
72677;BME280;60755;51.374;10.662;2022-09-16T01:44:19;96449.56;;;10.52;91.09
72677;BME280;60755;51.374;10.662;2022-09-16T01:46:59;96452.66;;;10.44;90.97
72677;BME280;60755;51.374;10.662;2022-09-16T01:49:35;96455.88;;;10.51;90.65
72677;BME280;60755;51.374;10.662;2022-09-16T01:52:15;96453.91;;;10.79;90.48
72677;BME280;60755;51.374;10.662;2022-09-16T01:54:48;96444.41;;;10.73;90.40
72677;BME280;60755;51.374;10.662;2022-09-16T01:57:20;96448.53;;;10.58;90.79
72677;BME280;60755;51.374;10.662;2022-09-16T01:59:52;96449.09;;;10.65;91.04
72677;BME280;60755;51.374;10.662;2022-09-16T02:02:26;96451.16;;;10.53;90.55
72677;BME280;60755;51.374;10.662;2022-09-16T02:04:56;96447.94;;;10.46;91.65
72677;BME280;60755;51.374;10.662;2022-09-16T02:07:29;96447.88;;;10.36;91.52
72677;BME280;60755;51.374;10.662;2022-09-16T02:09:58;96448.69;;;10.42;92.25
72677;BME280;60755;51.374;10.662;2022-09-16T02:12:32;96450.22;;;10.32;92.79
72677;BME280;60755;51.374;10.662;2022-09-16T02:15:04;96454.72;;;10.37;92.88
72677;BME280;60755;51.374;10.662;2022-09-16T02:17:39;96453.59;;;10.28;92.22
72677;BME280;60755;51.374;10.662;2022-09-16T02:20:09;96456.00;;;10.34;92.44
72677;BME280;60755;51.374;10.662;2022-09-16T02:22:40;96456.09;;;10.45;91.59
72677;BME280;60755;51.374;10.662;2022-09-16T02:25:09;96447.44;;;10.49;91.68
72677;BME280;60755;51.374;10.662;2022-09-16T02:27:38;96451.84;;;10.39;92.35
72677;BME280;60755;51.374;10.662;2022-09-16T02:30:08;96455.13;;;10.24;91.32
72677;BME280;60755;51.374;10.662;2022-09-16T02:32:40;96448.84;;;10.25;90.93
72677;BME280;60755;51.374;10.662;2022-09-16T02:35:11;96458.72;;;10.18;91.35
72677;BME280;60755;51.374;10.662;2022-09-16T02:37:43;96455.56;;;10.11;92.73
72677;BME280;60755;51.374;10.662;2022-09-16T02:40:17;96454.56;;;10.22;92.59
72677;BME280;60755;51.374;10.662;2022-09-16T02:42:45;96451.31;;;10.09;91.48
72677;BME280;60755;51.374;10.662;2022-09-16T02:45:12;96453.47;;;10.18;92.40
72677;BME280;60755;51.374;10.662;2022-09-16T02:47:45;96450.13;;;10.22;91.04
72677;BME280;60755;51.374;10.662;2022-09-16T02:50:16;96451.56;;;10.40;91.23
72677;BME280;60755;51.374;10.662;2022-09-16T02:52:51;96450.34;;;10.53;90.39
72677;BME280;60755;51.374;10.662;2022-09-16T02:55:30;96455.81;;;10.46;90.50
72677;BME280;60755;51.374;10.662;2022-09-16T02:58:02;96460.09;;;10.57;90.74
72677;BME280;60755;51.374;10.662;2022-09-16T03:00:29;96463.22;;;10.54;89.52
72677;BME280;60755;51.374;10.662;2022-09-16T03:02:59;96462.00;;;10.67;89.69
72677;BME280;60755;51.374;10.662;2022-09-16T03:05:26;96458.03;;;10.64;88.69
72677;BME280;60755;51.374;10.662;2022-09-16T03:07:53;96446.25;;;10.67;89.34
72677;BME280;60755;51.374;10.662;2022-09-16T03:10:22;96449.84;;;10.56;89.40
72677;BME280;60755;51.374;10.662;2022-09-16T03:12:55;96448.81;;;10.62;89.25
72677;BME280;60755;51.374;10.662;2022-09-16T03:15:35;96451.72;;;10.65;89.99
72677;BME280;60755;51.374;10.662;2022-09-16T03:18:24;96446.38;;;10.50;90.34
72677;BME280;60755;51.374;10.662;2022-09-16T03:20:58;96449.53;;;10.47;90.35
72677;BME280;60755;51.374;10.662;2022-09-16T03:23:35;96456.34;;;10.43;90.47
72677;BME280;60755;51.374;10.662;2022-09-16T03:26:15;96454.72;;;10.37;91.32
72677;BME280;60755;51.374;10.662;2022-09-16T03:28:53;96447.78;;;10.26;90.86
72677;BME280;60755;51.374;10.662;2022-09-16T03:31:26;96441.44;;;10.22;91.24
72677;BME280;60755;51.374;10.662;2022-09-16T03:34:01;96452.66;;;10.44;91.13
72677;BME280;60755;51.374;10.662;2022-09-16T03:36:32;96444.00;;;10.44;90.54
72677;BME280;60755;51.374;10.662;2022-09-16T03:39:02;96447.91;;;10.41;90.68
72677;BME280;60755;51.374;10.662;2022-09-16T03:41:30;96440.84;;;10.47;90.74
72677;BME280;60755;51.374;10.662;2022-09-16T03:43:59;96444.72;;;10.76;90.03
72677;BME280;60755;51.374;10.662;2022-09-16T03:46:26;96444.88;;;10.59;89.03
72677;BME280;60755;51.374;10.662;2022-09-16T03:48:53;96446.50;;;10.71;88.53
72677;BME280;60755;51.374;10.662;2022-09-16T03:51:21;96434.41;;;10.70;88.56
72677;BME280;60755;51.374;10.662;2022-09-16T03:53:48;96435.22;;;10.70;89.42
72677;BME280;60755;51.374;10.662;2022-09-16T03:56:14;96437.53;;;10.67;89.07
72677;BME280;60755;51.374;10.662;2022-09-16T03:58:41;96439.69;;;10.75;89.96
72677;BME280;60755;51.374;10.662;2022-09-16T04:01:08;96432.84;;;10.69;89.24
72677;BME280;60755;51.374;10.662;2022-09-16T04:03:34;96423.13;;;10.74;89.55
72677;BME280;60755;51.374;10.662;2022-09-16T04:06:02;96429.66;;;10.67;88.97
72677;BME280;60755;51.374;10.662;2022-09-16T04:08:30;96429.13;;;10.64;89.62
72677;BME280;60755;51.374;10.662;2022-09-16T04:10:58;96429.34;;;10.58;89.71
72677;BME280;60755;51.374;10.662;2022-09-16T04:13:25;96428.47;;;10.42;90.84
72677;BME280;60755;51.374;10.662;2022-09-16T04:15:51;96427.66;;;10.36;90.80
72677;BME280;60755;51.374;10.662;2022-09-16T04:18:18;96428.47;;;10.42;91.24
72677;BME280;60755;51.374;10.662;2022-09-16T04:20:44;96418.19;;;10.35;91.31
72677;BME280;60755;51.374;10.662;2022-09-16T04:23:11;96422.19;;;10.43;91.26
72677;BME280;60755;51.374;10.662;2022-09-16T04:25:39;96411.13;;;10.36;92.34
72677;BME280;60755;51.374;10.662;2022-09-16T04:28:06;96412.22;;;10.45;91.31
72677;BME280;60755;51.374;10.662;2022-09-16T04:30:32;96417.47;;;10.45;91.38
72677;BME280;60755;51.374;10.662;2022-09-16T04:32:59;96422.81;;;10.65;91.02
72677;BME280;60755;51.374;10.662;2022-09-16T04:35:25;96419.88;;;10.57;90.64
72677;BME280;60755;51.374;10.662;2022-09-16T04:37:52;96414.72;;;10.67;89.48
72677;BME280;60755;51.374;10.662;2022-09-16T04:40:18;96418.31;;;10.56;90.54
72677;BME280;60755;51.374;10.662;2022-09-16T04:42:49;96416.03;;;10.70;89.13
72677;BME280;60755;51.374;10.662;2022-09-16T04:45:15;96425.44;;;10.65;88.72
72677;BME280;60755;51.374;10.662;2022-09-16T04:47:43;96418.13;;;10.73;89.91
72677;BME280;60755;51.374;10.662;2022-09-16T04:50:09;96419.88;;;10.57;89.74
72677;BME280;60755;51.374;10.662;2022-09-16T04:52:36;96414.94;;;10.60;90.08
72677;BME280;60755;51.374;10.662;2022-09-16T04:55:02;96422.78;;;10.55;91.18
72677;BME280;60755;51.374;10.662;2022-09-16T04:57:30;96421.72;;;10.56;91.83
72677;BME280;60755;51.374;10.662;2022-09-16T04:59:57;96428.16;;;10.76;92.08
72677;BME280;60755;51.374;10.662;2022-09-16T05:02:24;96428.03;;;10.55;92.48
72677;BME280;60755;51.374;10.662;2022-09-16T05:04:51;96422.81;;;10.65;93.11
72677;BME280;60755;51.374;10.662;2022-09-16T05:07:17;96430.41;;;10.57;92.95
72677;BME280;60755;51.374;10.662;2022-09-16T05:09:44;96428.00;;;10.50;94.32
72677;BME280;60755;51.374;10.662;2022-09-16T05:12:11;96426.53;;;10.70;92.78
72677;BME280;60755;51.374;10.662;2022-09-16T05:14:37;96426.97;;;10.51;92.39
72677;BME280;60755;51.374;10.662;2022-09-16T05:17:05;96428.06;;;10.65;92.52
72677;BME280;60755;51.374;10.662;2022-09-16T05:19:32;96428.34;;;10.59;92.70
72677;BME280;60755;51.374;10.662;2022-09-16T05:21:58;96424.88;;;10.53;92.02
72677;BME280;60755;51.374;10.662;2022-09-16T05:24:27;96432.41;;;10.40;92.13
72677;BME280;60755;51.374;10.662;2022-09-16T05:26:53;96424.09;;;10.58;91.98
72677;BME280;60755;51.374;10.662;2022-09-16T05:29:20;96428.88;;;10.66;92.09
72677;BME280;60755;51.374;10.662;2022-09-16T05:31:46;96424.41;;;10.61;91.42
72677;BME280;60755;51.374;10.662;2022-09-16T05:34:16;96423.38;;;10.68;91.56
72677;BME280;60755;51.374;10.662;2022-09-16T05:36:43;96429.16;;;10.70;90.06
72677;BME280;60755;51.374;10.662;2022-09-16T05:39:12;96429.22;;;10.80;89.74
72677;BME280;60755;51.374;10.662;2022-09-16T05:41:40;96428.97;;;10.86;89.33
72677;BME280;60755;51.374;10.662;2022-09-16T05:44:06;96436.88;;;10.86;89.57
72677;BME280;60755;51.374;10.662;2022-09-16T05:46:33;96435.56;;;10.89;89.68
72677;BME280;60755;51.374;10.662;2022-09-16T05:49:00;96424.00;;;10.85;89.43
72677;BME280;60755;51.374;10.662;2022-09-16T05:51:28;96424.06;;;11.00;89.33
72677;BME280;60755;51.374;10.662;2022-09-16T05:53:55;96433.03;;;11.14;89.57
72677;BME280;60755;51.374;10.662;2022-09-16T05:56:23;96424.09;;;11.20;87.74
72677;BME280;60755;51.374;10.662;2022-09-16T05:58:50;96435.19;;;11.28;87.84
72677;BME280;60755;51.374;10.662;2022-09-16T06:01:19;96434.72;;;11.51;86.65
72677;BME280;60755;51.374;10.662;2022-09-16T06:03:47;96438.97;;;11.67;86.39
72677;BME280;60755;51.374;10.662;2022-09-16T06:06:18;96429.75;;;11.75;85.43
72677;BME280;60755;51.374;10.662;2022-09-16T06:08:47;96427.41;;;11.73;83.88
72677;BME280;60755;51.374;10.662;2022-09-16T06:11:14;96422.16;;;11.94;83.75
72677;BME280;60755;51.374;10.662;2022-09-16T06:13:40;96427.69;;;12.43;84.83
72677;BME280;60755;51.374;10.662;2022-09-16T06:16:08;96425.78;;;12.59;82.04
72677;BME280;60755;51.374;10.662;2022-09-16T06:18:36;96422.31;;;12.79;82.57
72677;BME280;60755;51.374;10.662;2022-09-16T06:21:05;96421.03;;;12.66;82.89
72677;BME280;60755;51.374;10.662;2022-09-16T06:23:32;96418.94;;;12.63;84.65
72677;BME280;60755;51.374;10.662;2022-09-16T06:26:00;96418.38;;;12.71;84.26
72677;BME280;60755;51.374;10.662;2022-09-16T06:28:28;96418.72;;;12.29;84.17
72677;BME280;60755;51.374;10.662;2022-09-16T06:31:05;96415.84;;;11.95;86.07
72677;BME280;60755;51.374;10.662;2022-09-16T06:33:32;96422.16;;;11.94;85.77
72677;BME280;60755;51.374;10.662;2022-09-16T06:36:02;96420.00;;;11.60;87.38
72677;BME280;60755;51.374;10.662;2022-09-16T06:38:29;96411.56;;;11.53;87.86
72677;BME280;60755;51.374;10.662;2022-09-16T06:40:57;96423.47;;;11.81;87.66
72677;BME280;60755;51.374;10.662;2022-09-16T06:43:25;96412.16;;;11.81;88.23
72677;BME280;60755;51.374;10.662;2022-09-16T06:45:55;96416.63;;;11.90;87.03
72677;BME280;60755;51.374;10.662;2022-09-16T06:48:22;96418.75;;;12.03;88.48
72677;BME280;60755;51.374;10.662;2022-09-16T06:50:48;96416.38;;;12.07;86.72
72677;BME280;60755;51.374;10.662;2022-09-16T06:53:22;96419.22;;;11.75;86.65
72677;BME280;60755;51.374;10.662;2022-09-16T06:55:49;96417.69;;;11.84;87.68
72677;BME280;60755;51.374;10.662;2022-09-16T06:58:15;96416.03;;;11.53;86.93
72677;BME280;60755;51.374;10.662;2022-09-16T07:00:43;96415.28;;;11.77;88.11
72677;BME280;60755;51.374;10.662;2022-09-16T07:03:09;96417.91;;;11.57;86.50
72677;BME280;60755;51.374;10.662;2022-09-16T07:05:35;96423.97;;;11.73;87.94
72677;BME280;60755;51.374;10.662;2022-09-16T07:08:02;96420.00;;;11.55;87.11
72677;BME280;60755;51.374;10.662;2022-09-16T07:10:28;96420.53;;;11.62;87.09
72677;BME280;60755;51.374;10.662;2022-09-16T07:12:55;96427.19;;;12.06;86.95
72677;BME280;60755;51.374;10.662;2022-09-16T07:15:22;96428.53;;;14.02;81.79
72677;BME280;60755;51.374;10.662;2022-09-16T07:17:53;96420.09;;;15.30;72.90
72677;BME280;60755;51.374;10.662;2022-09-16T07:20:20;96428.19;;;14.72;73.92
72677;BME280;60755;51.374;10.662;2022-09-16T07:22:46;96425.91;;;13.63;76.93
72677;BME280;60755;51.374;10.662;2022-09-16T07:25:15;96434.41;;;13.55;78.78
72677;BME280;60755;51.374;10.662;2022-09-16T07:27:41;96431.66;;;14.09;78.67
72677;BME280;60755;51.374;10.662;2022-09-16T07:30:08;96422.06;;;13.84;75.82
72677;BME280;60755;51.374;10.662;2022-09-16T07:32:34;96430.31;;;13.28;78.80
72677;BME280;60755;51.374;10.662;2022-09-16T07:35:04;96428.16;;;13.40;78.63
72677;BME280;60755;51.374;10.662;2022-09-16T07:37:30;96434.81;;;13.28;78.28
72677;BME280;60755;51.374;10.662;2022-09-16T07:39:57;96434.41;;;12.90;79.54
72677;BME280;60755;51.374;10.662;2022-09-16T07:42:23;96438.31;;;12.98;81.41
72677;BME280;60755;51.374;10.662;2022-09-16T07:44:50;96437.81;;;12.96;81.85
72677;BME280;60755;51.374;10.662;2022-09-16T07:47:16;96443.19;;;12.55;81.89
72677;BME280;60755;51.374;10.662;2022-09-16T07:49:43;96445.81;;;12.50;81.04
72677;BME280;60755;51.374;10.662;2022-09-16T07:52:12;96455.84;;;12.63;82.46
72677;BME280;60755;51.374;10.662;2022-09-16T07:54:39;96456.66;;;12.08;84.57
72677;BME280;60755;51.374;10.662;2022-09-16T07:57:05;96465.09;;;12.04;86.38
72677;BME280;60755;51.374;10.662;2022-09-16T07:59:31;96460.63;;;12.15;86.60
72677;BME280;60755;51.374;10.662;2022-09-16T08:01:58;96460.09;;;12.28;85.93
72677;BME280;60755;51.374;10.662;2022-09-16T08:04:24;96448.97;;;12.72;85.24
72677;BME280;60755;51.374;10.662;2022-09-16T08:06:51;96453.09;;;12.99;82.43
72677;BME280;60755;51.374;10.662;2022-09-16T08:09:18;96448.69;;;12.84;82.00
72677;BME280;60755;51.374;10.662;2022-09-16T08:11:47;96451.22;;;13.04;80.34
72677;BME280;60755;51.374;10.662;2022-09-16T08:14:13;96445.22;;;13.58;78.96
72677;BME280;60755;51.374;10.662;2022-09-16T08:16:39;96443.59;;;14.02;80.25
72677;BME280;60755;51.374;10.662;2022-09-16T08:19:06;96452.75;;;13.80;80.05
72677;BME280;60755;51.374;10.662;2022-09-16T08:21:32;96451.00;;;13.99;76.30
72677;BME280;60755;51.374;10.662;2022-09-16T08:23:59;96452.91;;;13.50;77.92
72677;BME280;60755;51.374;10.662;2022-09-16T08:26:26;96439.75;;;13.44;79.54
72677;BME280;60755;51.374;10.662;2022-09-16T08:28:53;96447.72;;;13.34;80.01
72677;BME280;60755;51.374;10.662;2022-09-16T08:31:19;96448.09;;;13.02;79.56
72677;BME280;60755;51.374;10.662;2022-09-16T08:33:47;96459.00;;;12.55;81.60
72677;BME280;60755;51.374;10.662;2022-09-16T08:36:16;96467.69;;;12.50;82.90
72677;BME280;60755;51.374;10.662;2022-09-16T08:38:44;96462.72;;;12.39;82.98
72677;BME280;60755;51.374;10.662;2022-09-16T08:41:24;96468.00;;;12.28;83.35
72677;BME280;60755;51.374;10.662;2022-09-16T08:43:59;96469.28;;;12.41;83.46
72677;BME280;60755;51.374;10.662;2022-09-16T08:46:33;96472.94;;;12.66;82.49
72677;BME280;60755;51.374;10.662;2022-09-16T08:49:07;96466.28;;;13.04;83.14
72677;BME280;60755;51.374;10.662;2022-09-16T08:51:39;96468.84;;;13.19;80.65
72677;BME280;60755;51.374;10.662;2022-09-16T08:54:11;96470.00;;;12.93;83.31
72677;BME280;60755;51.374;10.662;2022-09-16T08:56:38;96467.38;;;12.87;81.33
72677;BME280;60755;51.374;10.662;2022-09-16T08:59:12;96464.75;;;12.82;81.60
72677;BME280;60755;51.374;10.662;2022-09-16T09:01:46;96465.31;;;12.69;80.89
72677;BME280;60755;51.374;10.662;2022-09-16T09:04:15;96470.88;;;12.63;81.39
72677;BME280;60755;51.374;10.662;2022-09-16T09:06:50;96469.00;;;12.78;83.20
72677;BME280;60755;51.374;10.662;2022-09-16T09:09:35;96463.72;;;12.78;80.16
72677;BME280;60755;51.374;10.662;2022-09-16T09:12:07;96469.53;;;12.65;80.87
72677;BME280;60755;51.374;10.662;2022-09-16T09:14:46;96464.75;;;12.82;80.56
72677;BME280;60755;51.374;10.662;2022-09-16T09:17:20;96476.38;;;12.71;80.90
72677;BME280;60755;51.374;10.662;2022-09-16T09:19:56;96476.41;;;12.51;79.89
72677;BME280;60755;51.374;10.662;2022-09-16T09:22:42;96467.88;;;12.95;81.98
72677;BME280;60755;51.374;10.662;2022-09-16T09:25:21;96460.34;;;13.48;78.82
72677;BME280;60755;51.374;10.662;2022-09-16T09:27:54;96461.09;;;13.92;75.95
72677;BME280;60755;51.374;10.662;2022-09-16T09:30:27;96450.78;;;13.96;74.96
72677;BME280;60755;51.374;10.662;2022-09-16T09:33:03;96449.00;;;14.54;73.79
72677;BME280;60755;51.374;10.662;2022-09-16T09:35:43;96455.13;;;14.50;73.21
72677;BME280;60755;51.374;10.662;2022-09-16T09:38:35;96450.75;;;14.64;74.95
72677;BME280;60755;51.374;10.662;2022-09-16T09:41:10;96441.75;;;14.02;72.57
72677;BME280;60755;51.374;10.662;2022-09-16T09:43:42;96445.38;;;14.45;71.52
72677;BME280;60755;51.374;10.662;2022-09-16T09:46:16;96447.13;;;14.84;70.75
72677;BME280;60755;51.374;10.662;2022-09-16T09:48:48;96436.66;;;15.41;67.88
72677;BME280;60755;51.374;10.662;2022-09-16T09:51:22;96431.13;;;15.18;69.58
72677;BME280;60755;51.374;10.662;2022-09-16T09:53:53;96428.38;;;14.51;69.74
72677;BME280;60755;51.374;10.662;2022-09-16T09:56:25;96427.16;;;15.16;69.16
72677;BME280;60755;51.374;10.662;2022-09-16T09:58:59;96445.00;;;14.57;70.20
72677;BME280;60755;51.374;10.662;2022-09-16T10:01:29;96429.75;;;14.15;71.07
72677;BME280;60755;51.374;10.662;2022-09-16T10:03:55;96427.66;;;13.78;71.73
72677;BME280;60755;51.374;10.662;2022-09-16T10:06:27;96436.66;;;13.27;76.36
72677;BME280;60755;51.374;10.662;2022-09-16T10:08:56;96443.59;;;13.03;78.19
72677;BME280;60755;51.374;10.662;2022-09-16T10:11:24;96440.16;;;13.02;78.94
72677;BME280;60755;51.374;10.662;2022-09-16T10:13:52;96439.78;;;13.39;79.52
72677;BME280;60755;51.374;10.662;2022-09-16T10:16:24;96445.88;;;13.30;78.24
72677;BME280;60755;51.374;10.662;2022-09-16T10:18:57;96443.69;;;12.77;80.76
72677;BME280;60755;51.374;10.662;2022-09-16T10:21:38;96447.09;;;12.78;80.84
72677;BME280;60755;51.374;10.662;2022-09-16T10:24:24;96439.31;;;13.22;80.21
72677;BME280;60755;51.374;10.662;2022-09-16T10:26:52;96438.84;;;13.05;80.81
72677;BME280;60755;51.374;10.662;2022-09-16T10:29:19;96433.75;;;13.29;80.81
72677;BME280;60755;51.374;10.662;2022-09-16T10:31:45;96424.53;;;13.21;80.14
72677;BME280;60755;51.374;10.662;2022-09-16T10:34:17;96429.56;;;13.12;80.97
72677;BME280;60755;51.374;10.662;2022-09-16T10:36:45;96432.97;;;13.23;80.80
72677;BME280;60755;51.374;10.662;2022-09-16T10:39:22;96429.47;;;13.38;81.74
72677;BME280;60755;51.374;10.662;2022-09-16T10:41:49;96417.56;;;13.85;79.71
72677;BME280;60755;51.374;10.662;2022-09-16T10:44:19;96412.84;;;13.82;81.58
72677;BME280;60755;51.374;10.662;2022-09-16T10:46:56;96424.78;;;13.74;79.38
72677;BME280;60755;51.374;10.662;2022-09-16T10:49:30;96413.16;;;14.09;79.43
72677;BME280;60755;51.374;10.662;2022-09-16T10:52:14;96425.06;;;13.18;78.99
72677;BME280;60755;51.374;10.662;2022-09-16T10:54:41;96423.50;;;13.17;81.26
72677;BME280;60755;51.374;10.662;2022-09-16T10:57:20;96416.56;;;13.31;80.47
72677;BME280;60755;51.374;10.662;2022-09-16T10:59:55;96424.06;;;12.99;82.64
72677;BME280;60755;51.374;10.662;2022-09-16T11:02:31;96421.91;;;12.36;82.26
72677;BME280;60755;51.374;10.662;2022-09-16T11:05:06;96431.13;;;11.98;84.32
72677;BME280;60755;51.374;10.662;2022-09-16T11:07:41;96430.84;;;11.79;82.62
72677;BME280;60755;51.374;10.662;2022-09-16T11:10:18;96424.78;;;11.94;83.91
72677;BME280;60755;51.374;10.662;2022-09-16T11:13:08;96426.91;;;12.17;82.54
72677;BME280;60755;51.374;10.662;2022-09-16T11:15:51;96410.97;;;12.78;82.56
72677;BME280;60755;51.374;10.662;2022-09-16T11:18:31;96422.91;;;13.30;77.72
72677;BME280;60755;51.374;10.662;2022-09-16T11:21:14;96419.34;;;12.96;81.55
72677;BME280;60755;51.374;10.662;2022-09-16T11:23:52;96423.03;;;13.00;81.59
72677;BME280;60755;51.374;10.662;2022-09-16T11:26:29;96418.97;;;13.28;81.81
72677;BME280;60755;51.374;10.662;2022-09-16T11:29:12;96420.09;;;13.66;79.44
72677;BME280;60755;51.374;10.662;2022-09-16T11:31:48;96429.47;;;13.43;77.52
72677;BME280;60755;51.374;10.662;2022-09-16T11:34:27;96422.91;;;12.35;78.27
72677;BME280;60755;51.374;10.662;2022-09-16T11:37:06;96414.19;;;12.60;80.30
72677;BME280;60755;51.374;10.662;2022-09-16T11:39:50;96424.47;;;12.56;77.63
72677;BME280;60755;51.374;10.662;2022-09-16T11:42:26;96422.66;;;12.52;77.44
72677;BME280;60755;51.374;10.662;2022-09-16T11:45:00;96422.09;;;12.65;77.96
72677;BME280;60755;51.374;10.662;2022-09-16T11:47:45;96420.50;;;12.69;78.10
72677;BME280;60755;51.374;10.662;2022-09-16T11:50:21;96419.19;;;12.62;78.20
72677;BME280;60755;51.374;10.662;2022-09-16T11:53:08;96408.41;;;12.53;79.34
72677;BME280;60755;51.374;10.662;2022-09-16T11:55:46;96409.13;;;12.79;78.33
72677;BME280;60755;51.374;10.662;2022-09-16T11:58:25;96410.97;;;12.78;78.22
72677;BME280;60755;51.374;10.662;2022-09-16T12:00:55;96399.88;;;12.86;77.71
72677;BME280;60755;51.374;10.662;2022-09-16T12:03:33;96401.47;;;12.82;78.29
72677;BME280;60755;51.374;10.662;2022-09-16T12:06:04;96398.84;;;12.77;77.87
72677;BME280;60755;51.374;10.662;2022-09-16T12:08:43;96402.56;;;12.76;78.94
72677;BME280;60755;51.374;10.662;2022-09-16T12:11:19;96399.22;;;13.15;78.20
72677;BME280;60755;51.374;10.662;2022-09-16T12:13:49;96397.03;;;13.37;76.97
72677;BME280;60755;51.374;10.662;2022-09-16T12:16:31;96396.75;;;13.78;74.15
72677;BME280;60755;51.374;10.662;2022-09-16T12:19:03;96386.69;;;14.14;73.05
72677;BME280;60755;51.374;10.662;2022-09-16T12:21:34;96383.97;;;14.53;72.49
72677;BME280;60755;51.374;10.662;2022-09-16T12:24:08;96377.72;;;14.92;70.10
72677;BME280;60755;51.374;10.662;2022-09-16T12:26:40;96386.69;;;14.91;66.16
72677;BME280;60755;51.374;10.662;2022-09-16T12:29:18;96385.25;;;15.23;64.23
72677;BME280;60755;51.374;10.662;2022-09-16T12:31:48;96378.75;;;15.34;62.86
72677;BME280;60755;51.374;10.662;2022-09-16T12:34:19;96380.59;;;15.15;63.62
72677;BME280;60755;51.374;10.662;2022-09-16T12:36:51;96374.63;;;15.65;63.71
72677;BME280;60755;51.374;10.662;2022-09-16T12:39:22;96381.47;;;15.29;66.46
72677;BME280;60755;51.374;10.662;2022-09-16T12:42:09;96389.28;;;14.96;65.68
72677;BME280;60755;51.374;10.662;2022-09-16T12:44:53;96390.81;;;14.25;67.32
72677;BME280;60755;51.374;10.662;2022-09-16T12:47:42;96377.91;;;13.90;68.80
72677;BME280;60755;51.374;10.662;2022-09-16T12:53:45;96380.59;;;13.51;70.39
72677;BME280;60755;51.374;10.662;2022-09-16T12:56:28;96377.97;;;13.46;72.95
72677;BME280;60755;51.374;10.662;2022-09-16T12:59:15;96377.28;;;13.69;70.16
72677;BME280;60755;51.374;10.662;2022-09-16T13:01:48;96379.91;;;13.69;68.50
72677;BME280;60755;51.374;10.662;2022-09-16T13:04:17;96362.88;;;13.90;67.25
72677;BME280;60755;51.374;10.662;2022-09-16T13:06:47;96368.22;;;13.80;66.76
72677;BME280;60755;51.374;10.662;2022-09-16T13:09:20;96370.34;;;14.12;65.76
72677;BME280;60755;51.374;10.662;2022-09-16T13:11:54;96366.38;;;14.39;65.29
72677;BME280;60755;51.374;10.662;2022-09-16T13:14:23;96366.19;;;14.30;64.46